Time;durP1;ratioP1;P1;durP2;ratioP2;P2;SDS_P1;SDS_P2;PMS_P1;PMS_P2;Temp;Humidity;BMP_temperature;BMP_pressure;BME280_temperature;BME280_humidity;BME280_pressure;Samples;Min_cycle;Max_cycle;Signal;HPM_P1;HPM_P2
2021/04/14 00:01:48;;;;;;;1.55;0.20;;;4.10;99.90;;;;;;5050108;28;20202;-65
2021/04/14 00:04:13;;;;;;;1.50;0.20;;;4.20;99.90;;;;;;5050744;28;20185;-66
2021/04/14 00:06:39;;;;;;;1.80;1.23;;;4.20;99.90;;;;;;5047125;28;20205;-66
2021/04/14 00:09:05;;;;;;;1.53;0.20;;;4.10;99.90;;;;;;5044016;28;20244;-66
2021/04/14 00:11:30;;;;;;;1.50;0.20;;;4.20;99.90;;;;;;5046478;28;20204;-66
2021/04/14 00:13:56;;;;;;;1.50;0.20;;;4.20;99.90;;;;;;5052467;28;20194;-65
2021/04/14 00:16:24;;;;;;;1.50;0.20;;;4.20;99.90;;;;;;5049183;28;20186;-65
2021/04/14 00:18:50;;;;;;;1.52;0.20;;;4.20;99.90;;;;;;5050209;28;20181;-65
2021/04/14 00:21:17;;;;;;;1.52;0.20;;;4.30;99.90;;;;;;5049682;28;20262;-65
2021/04/14 00:23:43;;;;;;;1.58;0.20;;;4.20;99.90;;;;;;5033242;28;20209;-65
2021/04/14 00:26:10;;;;;;;1.57;0.20;;;4.20;99.90;;;;;;5048286;28;20189;-65
2021/04/14 00:28:36;;;;;;;1.50;0.20;;;4.20;99.90;;;;;;5049438;28;20205;-66
2021/04/14 00:31:01;;;;;;;1.57;0.20;;;4.20;99.90;;;;;;5046481;28;20217;-66
2021/04/14 00:33:27;;;;;;;1.50;0.20;;;4.10;99.90;;;;;;5051589;28;20201;-65
2021/04/14 00:35:53;;;;;;;1.53;0.20;;;4.10;99.90;;;;;;5048890;28;20796;-67
2021/04/14 00:38:21;;;;;;;1.52;0.20;;;4.10;99.90;;;;;;5054078;28;20189;-67
2021/04/14 00:40:53;;;;;;;1.58;0.20;;;4.00;99.90;;;;;;5051962;28;20185;-67
2021/04/14 00:43:26;;;;;;;1.52;0.20;;;4.00;99.90;;;;;;5053732;28;20256;-67
2021/04/14 00:45:53;;;;;;;1.58;0.20;;;3.90;99.90;;;;;;5061209;28;20192;-66
2021/04/14 00:48:19;;;;;;;1.58;0.25;;;4.00;99.90;;;;;;5051212;28;20676;-66
2021/04/14 00:50:44;;;;;;;1.57;0.20;;;4.00;99.90;;;;;;5052545;28;20192;-66
2021/04/14 00:53:11;;;;;;;1.50;0.20;;;3.90;99.90;;;;;;5057426;28;20205;-65
2021/04/14 00:55:38;;;;;;;1.55;0.30;;;3.90;99.90;;;;;;5052224;28;20544;-66
2021/04/14 00:58:08;;;;;;;1.55;0.20;;;3.80;99.90;;;;;;5054560;28;20193;-66
2021/04/14 01:00:46;;;;;;;1.58;0.20;;;3.80;99.90;;;;;;5040523;28;20335;-68
2021/04/14 01:03:21;;;;;;;1.50;0.20;;;3.70;99.90;;;;;;5039942;28;20209;-64
2021/04/14 01:05:48;;;;;;;1.50;0.20;;;3.70;99.90;;;;;;5056642;28;20245;-66
2021/04/14 01:08:14;;;;;;;1.52;0.20;;;3.70;99.90;;;;;;5061129;28;20219;-67
2021/04/14 01:10:39;;;;;;;1.50;0.20;;;3.80;99.90;;;;;;5065979;28;20182;-67
2021/04/14 01:13:06;;;;;;;1.53;0.20;;;3.90;99.90;;;;;;5055737;28;20672;-66
2021/04/14 01:15:38;;;;;;;1.50;0.20;;;4.00;99.90;;;;;;5055929;28;20193;-66
2021/04/14 01:18:06;;;;;;;1.60;0.20;;;4.00;99.90;;;;;;5071809;28;20208;-65
2021/04/14 01:20:34;;;;;;;1.50;0.20;;;4.00;99.90;;;;;;5067951;28;20261;-66
2021/04/14 01:23:00;;;;;;;1.52;0.20;;;3.90;99.90;;;;;;5067897;28;20727;-66
2021/04/14 01:25:31;;;;;;;1.50;0.20;;;3.90;99.90;;;;;;5070409;28;20245;-65
2021/04/14 01:27:57;;;;;;;1.58;0.20;;;3.90;99.90;;;;;;5074808;28;20193;-64
2021/04/14 01:30:25;;;;;;;1.53;0.20;;;3.90;99.90;;;;;;5071812;28;20193;-66
2021/04/14 01:32:52;;;;;;;1.88;1.10;;;3.90;99.90;;;;;;5066283;28;20201;-66
2021/04/14 01:35:20;;;;;;;1.58;0.20;;;3.90;99.90;;;;;;5064942;28;20636;-67
2021/04/14 01:37:47;;;;;;;1.52;0.20;;;3.90;99.90;;;;;;5067236;28;20214;-67
2021/04/14 01:40:13;;;;;;;1.52;0.20;;;3.90;99.90;;;;;;5068933;28;20201;-66
2021/04/14 01:42:39;;;;;;;1.57;0.20;;;3.80;99.90;;;;;;5071527;28;20205;-66
2021/04/14 01:45:06;;;;;;;1.50;0.20;;;3.80;99.90;;;;;;5048569;28;20984;-65
2021/04/14 01:47:32;;;;;;;1.58;0.20;;;3.80;99.90;;;;;;5059841;28;20675;-65
2021/04/14 01:49:58;;;;;;;1.60;0.20;;;3.80;99.90;;;;;;5053197;28;20186;-65
2021/04/14 01:52:23;;;;;;;1.52;0.20;;;3.80;99.90;;;;;;5053559;28;20205;-66
2021/04/14 01:54:49;;;;;;;1.50;0.20;;;3.70;99.90;;;;;;5051802;28;20182;-67
2021/04/14 01:57:14;;;;;;;1.60;0.30;;;3.60;99.90;;;;;;5051102;28;20929;-67
2021/04/14 01:59:40;;;;;;;1.57;0.20;;;3.60;99.90;;;;;;5051464;28;20189;-66
2021/04/14 02:02:05;;;;;;;1.57;0.20;;;3.50;99.90;;;;;;5050865;28;20250;-67
2021/04/14 02:04:31;;;;;;;1.60;0.20;;;3.50;99.90;;;;;;5050057;28;20192;-67
2021/04/14 02:06:58;;;;;;;1.53;0.20;;;3.50;99.90;;;;;;5049187;28;20333;-65
2021/04/14 02:09:24;;;;;;;1.55;0.20;;;3.40;99.90;;;;;;5053624;28;20802;-67
2021/04/14 02:11:49;;;;;;;1.53;0.20;;;3.40;99.90;;;;;;5052850;28;20292;-67
2021/04/14 02:14:15;;;;;;;1.60;0.50;;;3.40;99.90;;;;;;5050682;28;20190;-66
2021/04/14 02:16:40;;;;;;;1.53;0.20;;;3.40;99.90;;;;;;5051470;28;20213;-66
2021/04/14 02:19:06;;;;;;;1.53;0.20;;;3.50;99.90;;;;;;5048917;28;20266;-67
2021/04/14 02:21:32;;;;;;;1.57;0.20;;;3.60;99.90;;;;;;5029190;28;20189;-66
2021/04/14 02:23:58;;;;;;;1.57;0.20;;;3.60;99.90;;;;;;5056843;28;20213;-64
2021/04/14 02:26:24;;;;;;;1.52;0.20;;;3.70;99.90;;;;;;5064670;28;20177;-67
2021/04/14 02:28:51;;;;;;;1.52;0.20;;;3.70;99.90;;;;;;5064226;28;20196;-67
2021/04/14 02:31:30;;;;;;;1.55;0.20;;;3.70;99.90;;;;;;5055242;28;20675;-67
2021/04/14 02:34:21;;;;;;;1.58;0.20;;;3.70;99.90;;;;;;5045925;28;20683;-64
2021/04/14 02:36:47;;;;;;;1.55;0.20;;;3.70;99.90;;;;;;5047202;28;20676;-66
2021/04/14 02:39:13;;;;;;;1.60;0.20;;;3.60;99.90;;;;;;5050561;28;20310;-66
2021/04/14 02:41:39;;;;;;;1.57;0.20;;;3.60;99.90;;;;;;5043292;28;20200;-66
2021/04/14 02:44:05;;;;;;;1.58;0.20;;;3.60;99.90;;;;;;5049092;28;20264;-66
2021/04/14 02:46:31;;;;;;;1.50;0.20;;;3.60;99.90;;;;;;5050142;28;20249;-67
2021/04/14 02:48:56;;;;;;;1.57;0.20;;;3.50;99.90;;;;;;5040740;28;20472;-67
2021/04/14 02:51:22;;;;;;;1.53;0.20;;;3.50;99.90;;;;;;5051017;28;20491;-65
2021/04/14 02:53:48;;;;;;;1.50;0.20;;;3.50;99.90;;;;;;5050192;28;20205;-67
2021/04/14 02:56:14;;;;;;;1.53;0.20;;;3.40;99.90;;;;;;5049018;28;20508;-64
2021/04/14 02:58:40;;;;;;;1.52;0.20;;;3.40;99.90;;;;;;5049962;28;20442;-65
2021/04/14 03:01:06;;;;;;;1.50;0.20;;;3.40;99.90;;;;;;5041976;28;20194;-64
2021/04/14 03:03:31;;;;;;;1.53;0.20;;;3.40;99.90;;;;;;5060483;28;20201;-64
2021/04/14 03:05:57;;;;;;;1.60;0.20;;;3.50;99.90;;;;;;5071597;28;20177;-66
2021/04/14 03:08:23;;;;;;;1.55;0.20;;;3.40;99.90;;;;;;5073766;28;20238;-67
2021/04/14 03:10:49;;;;;;;1.60;0.20;;;3.40;99.90;;;;;;5080123;28;20221;-64
2021/04/14 03:13:17;;;;;;;1.53;0.20;;;3.40;99.90;;;;;;5069808;28;20216;-64
2021/04/14 03:15:43;;;;;;;1.52;0.20;;;3.40;99.90;;;;;;5052751;28;20185;-65
2021/04/14 03:18:12;;;;;;;1.52;0.30;;;3.40;99.90;;;;;;5050859;28;20188;-66
2021/04/14 03:20:37;;;;;;;1.55;0.20;;;3.40;99.90;;;;;;5067889;28;20180;-66
2021/04/14 03:23:03;;;;;;;1.57;0.20;;;3.40;99.90;;;;;;5063353;28;20243;-67
2021/04/14 03:25:31;;;;;;;1.57;0.20;;;3.50;99.90;;;;;;5067768;28;20185;-64
2021/04/14 03:28:01;;;;;;;1.50;0.20;;;3.50;99.90;;;;;;5065363;28;20463;-65
2021/04/14 03:30:26;;;;;;;2.20;1.08;;;3.50;99.90;;;;;;5067365;28;20197;-67
2021/04/14 03:32:53;;;;;;;2.57;0.70;;;3.40;99.90;;;;;;5063949;28;22395;-65
2021/04/14 03:35:20;;;;;;;1.58;0.30;;;3.30;99.90;;;;;;5056660;28;20466;-66
2021/04/14 03:37:45;;;;;;;1.58;0.20;;;3.30;99.90;;;;;;5063347;28;20511;-66
2021/04/14 03:40:12;;;;;;;1.60;0.20;;;3.30;99.90;;;;;;5064336;28;20201;-65
2021/04/14 03:42:37;;;;;;;1.58;0.20;;;3.30;99.90;;;;;;5067975;28;20216;-67
2021/04/14 03:45:11;;;;;;;1.50;0.20;;;3.30;99.90;;;;;;5066058;28;20181;-65
2021/04/14 03:47:37;;;;;;;1.58;0.20;;;3.40;99.90;;;;;;5062893;28;20539;-65
2021/04/14 03:50:04;;;;;;;1.55;0.20;;;3.40;99.90;;;;;;5065514;28;20174;-66
2021/04/14 03:52:30;;;;;;;1.58;0.20;;;3.40;99.90;;;;;;5064781;28;20204;-66
2021/04/14 03:54:55;;;;;;;1.53;0.20;;;3.40;99.90;;;;;;5066799;28;20190;-65
2021/04/14 03:57:21;;;;;;;1.60;0.30;;;3.40;99.90;;;;;;5070697;28;20201;-66
2021/04/14 03:59:46;;;;;;;1.53;0.20;;;3.40;99.90;;;;;;5060819;28;20203;-66
2021/04/14 04:02:11;;;;;;;1.53;0.30;;;3.40;99.90;;;;;;5068185;28;20217;-66
2021/04/14 04:04:37;;;;;;;1.53;0.20;;;3.30;99.90;;;;;;5067696;28;20197;-66
2021/04/14 04:07:03;;;;;;;1.50;0.20;;;3.20;99.90;;;;;;5049003;28;20192;-66
2021/04/14 04:09:28;;;;;;;1.50;0.20;;;3.20;99.90;;;;;;5070256;28;20211;-67
2021/04/14 04:11:54;;;;;;;10.93;8.17;;;3.20;99.90;;;;;;5068201;28;20748;-65
2021/04/14 04:14:20;;;;;;;1.57;0.20;;;3.20;99.90;;;;;;5067684;28;20709;-66
2021/04/14 04:16:45;;;;;;;1.57;0.20;;;3.20;99.90;;;;;;5065752;28;20637;-66
2021/04/14 04:19:10;;;;;;;1.50;0.20;;;3.10;99.90;;;;;;5066160;28;20189;-65
2021/04/14 04:21:36;;;;;;;1.60;0.30;;;3.10;99.90;;;;;;5066817;28;20577;-66
2021/04/14 04:24:02;;;;;;;1.53;0.20;;;3.20;99.90;;;;;;5042191;28;20189;-65
2021/04/14 04:26:28;;;;;;;1.53;0.20;;;3.10;99.90;;;;;;5051715;28;20192;-65
2021/04/14 04:28:53;;;;;;;1.58;0.20;;;3.10;99.90;;;;;;5050283;28;20551;-65
2021/04/14 04:31:19;;;;;;;1.50;0.20;;;3.10;99.90;;;;;;5051353;28;20265;-65
2021/04/14 04:33:45;;;;;;;1.53;0.20;;;3.10;99.90;;;;;;5058171;28;20296;-65
2021/04/14 04:36:11;;;;;;;1.50;0.20;;;3.00;99.90;;;;;;5053443;28;20178;-65
2021/04/14 04:38:36;;;;;;;1.50;0.20;;;2.90;99.90;;;;;;5051083;28;20698;-65
2021/04/14 04:41:04;;;;;;;1.57;0.23;;;2.90;99.90;;;;;;5052090;28;20189;-65
2021/04/14 04:43:30;;;;;;;1.52;0.20;;;3.00;99.90;;;;;;5052587;28;20208;-65
2021/04/14 04:45:56;;;;;;;1.58;0.20;;;3.00;99.90;;;;;;5052708;28;20270;-65
2021/04/14 04:48:22;;;;;;;1.52;0.20;;;3.00;99.90;;;;;;5051657;28;20224;-65
2021/04/14 04:50:47;;;;;;;1.60;0.20;;;3.00;99.90;;;;;;5052337;28;20193;-65
2021/04/14 04:53:16;;;;;;;1.50;0.20;;;3.00;99.90;;;;;;5052736;28;20753;-65
2021/04/14 04:55:43;;;;;;;1.58;0.20;;;2.90;99.90;;;;;;5051732;28;20228;-65
2021/04/14 04:58:09;;;;;;;1.55;0.20;;;2.90;99.90;;;;;;5042958;28;20699;-65
2021/04/14 05:00:36;;;;;;;1.55;0.20;;;2.80;99.90;;;;;;5052535;28;20223;-65
2021/04/14 05:03:06;;;;;;;19.10;18.13;;;2.80;99.90;;;;;;5049934;28;20212;-65
2021/04/14 05:05:38;;;;;;;1.55;0.20;;;2.80;99.90;;;;;;5052926;28;20742;-65
2021/04/14 05:08:05;;;;;;;1.60;0.20;;;2.80;99.90;;;;;;5052163;28;20206;-66
2021/04/14 05:10:32;;;;;;;1.55;0.20;;;2.70;99.90;;;;;;5052401;28;20204;-65
2021/04/14 05:12:57;;;;;;;1.52;0.20;;;2.70;99.90;;;;;;5051629;28;20209;-66
2021/04/14 05:15:26;;;;;;;2.23;1.13;;;2.70;99.90;;;;;;5051775;28;20669;-65
2021/04/14 05:17:52;;;;;;;1.50;0.20;;;2.60;99.90;;;;;;5049191;28;20192;-65
2021/04/14 05:20:19;;;;;;;1.57;0.20;;;2.60;99.90;;;;;;5050754;28;20268;-66
2021/04/14 05:22:45;;;;;;;1.55;0.20;;;2.70;99.90;;;;;;5051745;28;20212;-65
2021/04/14 05:25:14;;;;;;;1.50;0.20;;;2.70;99.90;;;;;;5051443;28;20181;-65
2021/04/14 05:27:41;;;;;;;1.58;0.20;;;2.70;99.90;;;;;;5050523;28;20185;-65
2021/04/14 05:30:07;;;;;;;2.42;2.08;;;2.70;99.90;;;;;;5048003;28;20572;-65
2021/04/14 05:32:33;;;;;;;1.60;0.50;;;2.70;99.90;;;;;;5051784;28;20209;-66
2021/04/14 05:34:58;;;;;;;1.60;0.30;;;2.70;99.90;;;;;;5052336;28;20189;-66
2021/04/14 05:37:26;;;;;;;1.50;0.20;;;2.80;99.90;;;;;;5048701;28;20544;-67
2021/04/14 05:39:51;;;;;;;1.55;0.20;;;2.80;99.90;;;;;;5051690;28;20181;-66
2021/04/14 05:42:17;;;;;;;1.50;0.20;;;2.80;99.90;;;;;;5052291;28;20435;-66
2021/04/14 05:44:42;;;;;;;1.60;0.27;;;2.80;99.90;;;;;;5040351;28;20667;-66
2021/04/14 05:47:08;;;;;;;1.70;0.20;;;2.90;99.90;;;;;;5049921;28;20416;-66
2021/04/14 05:49:33;;;;;;;2.43;0.80;;;2.90;99.90;;;;;;5055626;28;20279;-65
2021/04/14 05:51:59;;;;;;;1.80;0.50;;;3.00;99.90;;;;;;5048891;28;20205;-65
2021/04/14 05:54:24;;;;;;;1.57;0.20;;;3.00;99.90;;;;;;5044209;28;20200;-66
2021/04/14 05:56:50;;;;;;;5.43;5.10;;;3.10;99.90;;;;;;5050063;28;20189;-65
2021/04/14 05:59:15;;;;;;;1.60;0.30;;;3.10;99.90;;;;;;5050674;28;20192;-66
2021/04/14 06:01:43;;;;;;;1.60;0.20;;;3.20;99.90;;;;;;5044047;28;20222;-66
2021/04/14 06:04:10;;;;;;;1.58;0.20;;;3.20;99.90;;;;;;5048115;28;20250;-66
2021/04/14 06:06:35;;;;;;;1.60;0.30;;;3.20;99.90;;;;;;5051490;28;20220;-66
2021/04/14 06:09:01;;;;;;;1.50;0.20;;;3.20;99.90;;;;;;5049441;28;20267;-66
2021/04/14 06:11:28;;;;;;;1.60;0.20;;;3.30;99.90;;;;;;5053450;28;20177;-66
2021/04/14 06:13:55;;;;;;;1.60;0.30;;;3.30;99.90;;;;;;5052352;28;20197;-66
2021/04/14 06:16:21;;;;;;;2.67;1.27;;;3.30;99.90;;;;;;5042975;28;20315;-66
2021/04/14 06:18:47;;;;;;;2.07;0.87;;;3.40;99.90;;;;;;5059363;28;20204;-67
2021/04/14 06:21:15;;;;;;;1.55;0.20;;;3.40;99.90;;;;;;5063830;28;20174;-68
2021/04/14 06:23:41;;;;;;;2.70;1.25;;;3.50;99.90;;;;;;5060069;28;20205;-68
2021/04/14 06:28:32;;;;;;;23.77;2.47;;;3.60;99.90;;;;;;5053360;28;20227;-67
2021/04/14 06:30:58;;;;;;;2.20;0.70;;;3.60;99.90;;;;;;5043953;28;20661;-67
2021/04/14 06:33:24;;;;;;;1.87;0.43;;;3.70;99.90;;;;;;5057804;28;20201;-67
2021/04/14 06:35:55;;;;;;;2.17;0.82;;;3.70;99.90;;;;;;5062597;28;20174;-68
2021/04/14 06:38:29;;;;;;;2.70;0.88;;;3.80;99.90;;;;;;5051504;28;20212;-68
2021/04/14 06:44:16;;;;;;;1.60;0.20;;;4.00;99.90;;;;;;5068571;28;20215;-67
2021/04/14 06:46:42;;;;;;;2.25;0.88;;;4.10;99.90;;;;;;5059370;28;20287;-67
2021/04/14 06:49:41;;;;;;;1.53;0.20;;;4.20;99.90;;;;;;5052098;28;20306;-66
2021/04/14 06:52:25;;;;;;;2.60;0.90;;;4.30;99.90;;;;;;5051749;28;20205;-66
2021/04/14 06:55:05;;;;;;;3.85;3.17;;;4.30;99.90;;;;;;5065100;28;20236;-66
2021/04/14 06:57:35;;;;;;;1.80;0.55;;;4.40;99.90;;;;;;5060980;28;20264;-66
2021/04/14 07:00:12;;;;;;;2.00;0.80;;;4.50;99.90;;;;;;5071792;28;20695;-67
2021/04/14 07:03:12;;;;;;;1.55;0.20;;;4.50;99.90;;;;;;5058851;28;20209;-69
2021/04/14 07:05:41;;;;;;;1.70;0.38;;;4.60;99.90;;;;;;5053709;28;20193;-68
2021/04/14 07:08:21;;;;;;;1.60;0.30;;;4.60;99.90;;;;;;5062114;28;20224;-69
2021/04/14 07:10:53;;;;;;;1.58;0.20;;;4.60;99.90;;;;;;5056739;28;20205;-69
2021/04/14 07:13:19;;;;;;;1.70;0.50;;;4.70;99.90;;;;;;5068545;28;20288;-69
2021/04/14 07:15:47;;;;;;;1.53;0.20;;;4.70;99.90;;;;;;5059462;28;20174;-69
2021/04/14 07:18:22;;;;;;;1.58;0.20;;;4.70;99.90;;;;;;5073107;28;20183;-68
2021/04/14 07:21:00;;;;;;;1.60;0.20;;;4.70;99.90;;;;;;5054152;28;20179;-68
2021/04/14 07:23:53;;;;;;;1.70;0.60;;;4.70;99.90;;;;;;5057291;28;20205;-69
2021/04/14 07:26:40;;;;;;;1.60;0.40;;;4.60;99.90;;;;;;5050658;28;20178;-69
2021/04/14 07:29:33;;;;;;;1.52;0.20;;;4.60;99.90;;;;;;5046625;28;20206;-68
2021/04/14 07:32:17;;;;;;;1.52;0.20;;;4.50;99.90;;;;;;5025694;28;20201;-69
2021/04/14 07:34:51;;;;;;;1.60;0.20;;;4.60;99.90;;;;;;5050409;28;20188;-69
2021/04/14 07:37:27;;;;;;;1.50;0.20;;;4.60;99.90;;;;;;5051983;28;20180;-67
2021/04/14 07:40:31;;;;;;;1.60;0.40;;;4.60;99.90;;;;;;5049087;28;20380;-68
2021/04/14 07:43:25;;;;;;;1.60;0.20;;;4.70;99.90;;;;;;5056453;28;20231;-67
2021/04/14 07:45:52;;;;;;;1.70;0.60;;;4.70;99.90;;;;;;5053565;28;20185;-67
2021/04/14 07:48:24;;;;;;;2.13;1.48;;;4.80;99.90;;;;;;5053994;28;20209;-68
2021/04/14 07:50:56;;;;;;;2.55;0.80;;;4.80;99.90;;;;;;5053094;28;20185;-68
2021/04/14 07:53:25;;;;;;;1.60;0.20;;;4.90;99.90;;;;;;5050817;28;20237;-67
2021/04/14 07:56:21;;;;;;;2.47;0.75;;;4.90;99.90;;;;;;5053641;28;20181;-67
2021/04/14 07:58:50;;;;;;;1.60;0.30;;;5.00;99.90;;;;;;5053713;28;20181;-68
2021/04/14 08:01:19;;;;;;;1.60;0.30;;;5.00;99.90;;;;;;5050670;28;20189;-67
2021/04/14 08:03:45;;;;;;;1.60;0.40;;;5.10;99.90;;;;;;5053159;28;20212;-68
2021/04/14 08:06:18;;;;;;;4.38;0.52;;;5.10;99.90;;;;;;5059375;28;20231;-68
2021/04/14 08:08:46;;;;;;;1.80;0.73;;;5.20;99.90;;;;;;5050657;28;20262;-67
2021/04/14 08:11:18;;;;;;;2.15;1.00;;;5.20;99.90;;;;;;5051727;28;20197;-68
2021/04/14 08:13:45;;;;;;;1.60;0.30;;;5.20;99.90;;;;;;5050890;28;20201;-68
2021/04/14 08:16:36;;;;;;;1.75;0.40;;;5.30;99.90;;;;;;5049001;28;20185;-68
2021/04/14 08:19:11;;;;;;;1.80;0.68;;;5.50;99.90;;;;;;5051211;28;20217;-67
2021/04/14 08:21:52;;;;;;;1.58;0.20;;;5.60;99.90;;;;;;5052197;28;20188;-67
2021/04/14 08:24:28;;;;;;;1.50;0.20;;;5.60;99.90;;;;;;5043743;28;20204;-68
2021/04/14 08:26:57;;;;;;;1.60;0.40;;;5.70;99.90;;;;;;5050145;28;20180;-67
2021/04/14 08:29:23;;;;;;;3.42;2.95;;;5.70;99.90;;;;;;5045411;28;20201;-66
2021/04/14 08:31:49;;;;;;;1.53;0.20;;;5.70;99.90;;;;;;5041527;28;20254;-65
2021/04/14 08:34:17;;;;;;;1.52;0.20;;;5.80;99.90;;;;;;5054155;28;20185;-67
2021/04/14 08:36:50;;;;;;;1.55;0.20;;;5.90;99.90;;;;;;5053821;28;20201;-66
2021/04/14 08:39:21;;;;;;;1.55;0.20;;;6.00;99.90;;;;;;5058724;28;20231;-66
2021/04/14 08:41:48;;;;;;;3.40;0.90;;;6.00;99.90;;;;;;5053272;28;20178;-67
2021/04/14 08:44:17;;;;;;;1.55;0.30;;;6.10;99.90;;;;;;5059230;28;20536;-69
2021/04/14 08:46:43;;;;;;;1.60;0.43;;;6.10;99.90;;;;;;5053237;28;20181;-69
2021/04/14 08:49:22;;;;;;;1.55;0.20;;;6.20;99.90;;;;;;5056194;28;20710;-69
2021/04/14 08:51:53;;;;;;;1.58;0.20;;;6.10;99.90;;;;;;5048495;28;20189;-70
2021/04/14 08:54:26;;;;;;;1.50;0.20;;;6.20;99.90;;;;;;5055194;28;20319;-70
2021/04/14 08:56:54;;;;;;;1.58;0.32;;;6.20;99.90;;;;;;5053807;28;20220;-69
2021/04/14 08:59:20;;;;;;;1.50;0.20;;;6.30;99.90;;;;;;5056084;28;20189;-68
2021/04/14 09:01:46;;;;;;;1.55;0.20;;;6.20;99.90;;;;;;5046593;28;20220;-68
2021/04/14 09:04:13;;;;;;;1.50;0.20;;;6.20;99.90;;;;;;5054418;28;20643;-69
2021/04/14 09:06:43;;;;;;;1.50;0.20;;;6.20;98.80;;;;;;5050336;28;20197;-69
2021/04/14 09:09:15;;;;;;;1.55;0.20;;;6.20;96.90;;;;;;5053237;28;20212;-71
2021/04/14 09:11:42;;;;;;;1.50;0.20;;;6.20;96.60;;;;;;5055932;28;20205;-70
2021/04/14 09:14:24;;;;;;;2.50;0.45;;;6.20;96.60;;;;;;5053097;28;20186;-74
2021/04/14 09:16:54;;;;;;;1.50;0.20;;;6.10;95.90;;;;;;5061641;28;20288;-70
2021/04/14 09:19:24;;;;;;;1.52;0.20;;;6.10;95.90;;;;;;5053769;28;20643;-69
2021/04/14 09:21:54;;;;;;;1.50;0.20;;;6.10;96.10;;;;;;5052617;28;20193;-70
2021/04/14 09:24:39;;;;;;;1.50;0.20;;;6.20;96.00;;;;;;5051744;28;20181;-69
2021/04/14 09:27:11;;;;;;;1.52;0.20;;;6.40;95.40;;;;;;5050174;28;20218;-69
2021/04/14 09:29:57;;;;;;;1.50;0.20;;;6.60;95.30;;;;;;5054096;28;20228;-69
